Time;durP1;ratioP1;P1;durP2;ratioP2;P2;SDS_P1;SDS_P2;PMS_P1;PMS_P2;Temp;Humidity;BMP_temperature;BMP_pressure;BME280_temperature;BME280_humidity;BME280_pressure;Samples;Min_cycle;Max_cycle;Signal;HPM_P1;HPM_P2
2023/01/15 00:09:13;;;;;;;9.60;3.30;;;;;;;7.14;90.56;99210.97;217337;1299;94459;-89
2023/01/15 00:15:14;;;;;;;10.90;2.90;;;;;;;7.19;90.52;99199.98;216614;1299;138029;-89
2023/01/15 00:21:15;;;;;;;8.50;2.70;;;;;;;7.24;90.02;99183.19;217215;1299;94733;-87
2023/01/15 00:39:17;;;;;;;;;;;;;;;;;;;;;
2023/01/15 00:45:18;;;;;;;;;;;;;;;;;;;;;
2023/01/15 00:51:22;;;;;;;9.00;1.80;;;;;;;7.46;89.55;99118.38;217336;1297;94371;-88
2023/01/15 00:57:23;;;;;;;7.00;2.40;;;;;;;7.52;89.30;99111.34;216924;1299;139301;-90
2023/01/15 01:03:24;;;;;;;7.00;1.70;;;;;;;7.59;89.26;99117.62;216747;1298;137953;-88
2023/01/15 01:09:18;;;;;;;;;;;;;;;;;;;;;
2023/01/15 01:15:29;;;;;;;7.80;2.00;;;;;;;7.81;88.68;99103.26;216975;1295;137651;-92
2023/01/15 01:27:34;;;;;;;5.70;1.60;;;;;;;7.91;88.49;99087.21;217547;1299;137827;-94
2023/01/15 03:10:41;;;;;;;3.20;1.10;;;;;;;8.64;88.07;98956.07;217167;1299;94853;-88
2023/01/15 03:22:01;;;;;;;4.60;1.30;;;;;;;8.70;87.93;98952.27;217233;1298;137939;-89
2023/01/15 03:27:43;;;;;;;;;;;;;;;;;;;;;
2023/01/15 03:33:35;;;;;;;3.00;1.10;;;;;;;8.69;88.14;98926.04;216903;1299;137969;-92
2023/01/15 03:44:53;;;;;;;5.00;1.20;;;;;;;8.68;88.16;98921.02;216755;1298;138072;-89
2023/01/15 03:56:18;;;;;;;;;;;;;;;;;;;;;
2023/01/15 04:02:18;;;;;;;3.30;1.10;;;;;;;8.67;88.04;98888.74;217068;1299;138332;-91
2023/01/15 04:14:27;;;;;;;3.40;1.00;;;;;;;8.68;87.94;98880.66;216831;1299;138853;-90
2023/01/15 04:20:28;;;;;;;4.60;1.20;;;;;;;8.68;88.23;98865.63;217482;1298;94692;-93
2023/01/15 04:26:29;;;;;;;3.30;1.00;;;;;;;8.69;88.17;98878.39;217017;1299;138148;-91
2023/01/15 04:32:22;;;;;;;;;;;;;;;;;;;;;
2023/01/15 04:38:34;;;;;;;5.50;1.60;;;;;;;8.66;89.71;98858.36;217002;1299;94597;-91
2023/01/15 04:44:38;;;;;;;3.40;1.00;;;;;;;8.63;91.44;98851.80;216471;1299;137987;-89
2023/01/15 04:50:38;;;;;;;5.60;1.30;;;;;;;8.53;93.59;98848.48;217333;1299;94521;-90
2023/01/15 04:56:41;;;;;;;5.10;1.20;;;;;;;8.41;95.26;98839.86;216719;1299;138038;-92
2023/01/15 05:02:43;;;;;;;4.00;1.30;;;;;;;8.31;96.63;98828.71;216725;1299;138487;-92
2023/01/15 05:13:54;;;;;;;3.00;1.00;;;;;;;8.18;98.91;98819.30;216683;1300;138266;-87
2023/01/15 05:19:55;;;;;;;4.30;1.40;;;;;;;8.12;99.89;98821.43;217305;1300;94947;-91
2023/01/15 05:31:50;;;;;;;;;;;;;;;;;;;;;
2023/01/15 05:37:39;;;;;;;;;;;;;;;;;;;;;
2023/01/15 05:43:37;;;;;;;3.30;1.50;;;;;;;7.76;100.00;98825.50;216263;1301;138083;-86
2023/01/15 05:49:28;;;;;;;5.00;1.50;;;;;;;7.70;100.00;98821.13;216756;1304;94546;-87
2023/01/15 05:55:25;;;;;;;6.20;2.30;;;;;;;7.67;100.00;98819.67;216193;1302;137686;-88
2023/01/15 06:01:17;;;;;;;;;;;;;;;;;;;;;
2023/01/15 06:07:16;;;;;;;;;;;;;;;;;;;;;
2023/01/15 06:13:12;;;;;;;4.70;2.00;;;;;;;7.65;100.00;98794.80;212328;1299;5402063;-88
2023/01/15 06:19:12;;;;;;;;;;;;;;;;;;;;;
2023/01/15 06:25:08;;;;;;;4.40;1.80;;;;;;;7.63;100.00;98785.73;216403;1299;138450;-88
2023/01/15 06:31:00;;;;;;;;;;;;;;;;;;;;;
2023/01/15 06:36:33;;;;;;;6.60;2.00;;;;;;;7.65;100.00;98787.84;216381;1302;140230;-90
2023/01/15 06:48:17;;;;;;;5.40;2.10;;;;;;;7.68;100.00;98783.45;217041;1301;104921;-92
2023/01/15 07:00:02;;;;;;;5.90;2.60;;;;;;;7.74;100.00;98774.73;217013;1301;104823;-90
2023/01/15 07:05:48;;;;;;;;;;;;;;;;;;;;;
2023/01/15 07:12:11;;;;;;;5.00;2.30;;;;;;;7.82;100.00;98779.79;217075;1299;104094;-89
2023/01/15 07:17:39;;;;;;;;;;;;;;;;;;;;;
2023/01/15 07:23:32;;;;;;;;;;;;;;;;;;;;;
2023/01/15 07:29:34;;;;;;;6.50;2.70;;;;;;;7.95;100.00;98781.45;217137;1299;109024;-89
2023/01/15 07:35:15;;;;;;;;;;;;;;;;;;;;;
2023/01/15 07:53:16;;;;;;;4.80;2.00;;;;;;;8.06;100.00;98779.11;216557;1299;138464;-91
2023/01/15 07:59:17;;;;;;;3.50;2.10;;;;;;;8.08;100.00;98777.77;217187;1299;108602;-89
2023/01/15 08:05:08;;;;;;;6.10;2.50;;;;;;;8.11;100.00;98781.27;216618;1298;139045;-91
2023/01/15 08:15:11;;;;;;;6.90;2.50;;;;;;;8.13;100.00;98784.41;217055;1299;94607;-92
2023/01/15 08:16:42;;;;;;;;;;;;;;;;;;;;;
2023/01/15 08:23:00;;;;;;;8.80;2.70;;;;;;;8.17;100.00;98768.88;216658;1299;138433;-93
2023/01/15 08:28:35;;;;;;;;;;;;;;;;;;;;;
2023/01/15 08:34:26;;;;;;;4.60;2.10;;;;;;;8.22;100.00;98774.44;216526;1299;138329;-88
2023/01/15 08:40:18;;;;;;;6.20;3.00;;;;;;;8.26;100.00;98767.29;217114;1299;94817;-88
2023/01/15 08:45:57;;;;;;;;;;;;;;;;;;;;;
2023/01/15 08:51:51;;;;;;;;;;;;;;;;;;;;;
2023/01/15 08:57:52;;;;;;;;;;;;;;;;;;;;;
2023/01/15 09:03:57;;;;;;;;;;;;;;;;;;;;;
2023/01/15 09:10:01;;;;;;;3.90;2.30;;;;;;;8.38;100.00;98786.16;217358;1299;95499;-93
2023/01/15 09:15:49;;;;;;;6.70;2.60;;;;;;;8.40;100.00;98795.77;216902;1299;138045;-91
2023/01/15 09:21:32;;;;;;;7.10;2.70;;;;;;;8.42;100.00;98818.71;216864;1298;94798;-87
2023/01/15 09:26:52;;;;;;;6.50;2.40;;;;;;;8.42;100.00;98853.57;216718;1299;138917;-89
2023/01/15 09:32:43;;;;;;;4.80;1.40;;;;;;;8.40;100.00;98858.82;216396;1299;138405;-90
2023/01/15 10:11:32;;;;;;;;;;;;;;;;;;;;;
2023/01/15 10:17:17;;;;;;;;;;;;;;;;;;;;;
2023/01/15 10:23:42;;;;;;;4.60;1.70;;;;;;;7.32;100.00;98940.55;216720;1301;138730;-92
2023/01/15 12:31:22;;;;;;;;;;;;;;;;;;;;;
2023/01/15 13:30:36;;;;;;;13.90;5.70;;;;;;;5.59;100.00;99019.35;217407;1298;94817;-91
2023/01/15 17:00:33;;;;;;;13.40;5.10;;;;;;;4.93;100.00;99174.88;195905;1295;95289;-90
2023/01/15 17:06:26;;;;;;;;;;;;;;;;;;;;;
2023/01/15 18:56:52;;;;;;;;;;;;;;;;;;;;;
2023/01/15 20:27:38;;;;;;;;;;;;;;;;;;;;;
2023/01/15 20:51:22;;;;;;;10.50;3.90;;;;;;;3.79;100.00;99254.49;217776;1298;103746;-90
2023/01/15 20:57:13;;;;;;;11.10;3.30;;;;;;;3.74;100.00;99256.44;216219;1304;138083;-92
2023/01/15 21:03:14;;;;;;;8.30;3.00;;;;;;;3.69;100.00;99259.90;216451;1305;138523;-91
2023/01/15 21:09:05;;;;;;;8.60;3.00;;;;;;;3.66;100.00;99261.70;217437;1297;105075;-91
2023/01/15 21:15:16;;;;;;;;;;;;;;;;;;;;;
2023/01/15 21:26:34;;;;;;;6.30;2.20;;;;;;;3.62;100.00;99265.45;217770;1295;102303;-89
2023/01/15 21:32:36;;;;;;;7.40;2.60;;;;;;;3.59;100.00;99265.70;216980;1299;138445;-90
2023/01/15 21:38:37;;;;;;;9.40;2.80;;;;;;;3.57;100.00;99269.85;217567;1298;104769;-91
2023/01/15 21:55:47;;;;;;;;;;;;;;;;;;;;;
2023/01/15 22:01:16;;;;;;;8.10;2.30;;;;;;;3.49;100.00;99266.89;217710;1297;104654;-91
2023/01/15 22:06:44;;;;;;;8.60;2.30;;;;;;;3.47;100.00;99270.26;217449;1297;138236;-94
2023/01/15 22:17:58;;;;;;;7.40;2.70;;;;;;;3.45;100.00;99278.54;217981;1293;102277;-89
2023/01/15 22:24:05;;;;;;;;;;;;;;;;;;;;;
2023/01/15 22:30:12;;;;;;;8.40;2.50;;;;;;;3.42;100.00;99274.35;216368;1300;139317;-89
2023/01/15 22:48:06;;;;;;;;;;;;;;;;;;;;;
2023/01/15 22:53:38;;;;;;;9.70;3.80;;;;;;;3.35;99.56;99261.55;216561;1298;138216;-87
2023/01/15 22:59:10;;;;;;;;;;;;;;;;;;;;;
2023/01/15 23:05:07;;;;;;;10.40;3.80;;;;;;;3.28;99.30;99261.87;217320;1302;109120;-90
2023/01/15 23:10:50;;;;;;;;;;;;;;;;;;;;;
2023/01/15 23:16:40;;;;;;;7.80;2.30;;;;;;;3.24;98.75;99254.95;217192;1298;106773;-92
2023/01/15 23:22:11;;;;;;;6.60;1.70;;;;;;;3.24;98.49;99248.73;216833;1299;138808;-90
2023/01/15 23:27:12;;;;;;;7.70;2.30;;;;;;;3.22;98.31;99245.51;217259;1299;107759;-90
2023/01/15 23:32:32;;;;;;;5.40;1.80;;;;;;;3.19;98.01;99236.52;216943;1297;138054;-91
2023/01/15 23:37:49;;;;;;;6.60;2.10;;;;;;;3.20;97.74;99235.13;217181;1299;94725;-88
2023/01/15 23:49:03;;;;;;;5.70;1.70;;;;;;;3.17;97.29;99229.10;217240;1299;94746;-88
2023/01/15 23:54:57;;;;;;;5.00;1.70;;;;;;;3.12;97.41;99230.07;217144;1299;137771;-90
